Time;durP1;ratioP1;P1;durP2;ratioP2;P2;SDS_P1;SDS_P2;PMS_P1;PMS_P2;Temp;Humidity;BMP_temperature;BMP_pressure;BME280_temperature;BME280_humidity;BME280_pressure;Samples;Min_cycle;Max_cycle;Signal;HPM_P1;HPM_P2
2022/06/10 00:01:19;;;;;;;;;;;;;;;31.81;27.17;100505.34;4407997;32;20002;-71
2022/06/10 00:03:44;;;;;;;;;;;;;;;31.82;27.02;100511.94;4409748;32;19958;-71
2022/06/10 00:06:12;;;;;;;;;;;;;;;31.80;27.26;100515.41;4409099;32;20031;-71
2022/06/10 00:08:39;;;;;;;;;;;;;;;31.45;27.60;100510.03;4409815;32;20024;-70
2022/06/10 00:11:06;;;;;;;;;;;;;;;31.97;26.97;100518.41;4409195;32;19997;-70
2022/06/10 00:13:34;;;;;;;;;;;;;;;32.05;26.84;100509.62;4408744;32;20707;-70
2022/06/10 00:16:00;;;;;;;;;;;;;;;31.65;27.15;100508.91;4409229;32;21310;-70
2022/06/10 00:18:28;;;;;;;;;;;;;;;31.56;27.18;100509.56;4410068;32;20031;-71
2022/06/10 00:20:53;;;;;;;;;;;;;;;31.55;27.43;100508.00;4409580;32;19969;-71
2022/06/10 00:23:19;;;;;;;;;;;;;;;31.65;27.12;100515.50;4409488;32;20440;-71
2022/06/10 00:25:45;;;;;;;;;;;;;;;31.36;27.49;100505.63;4408654;32;19966;-71
2022/06/10 00:28:11;;;;;;;;;;;;;;;31.65;27.17;100515.50;4409524;32;20053;-70
2022/06/10 00:30:37;;;;;;;;;;;;;;;31.46;27.49;100512.34;4410325;32;20012;-70
2022/06/10 00:33:03;;;;;;;;;;;;;;;31.52;27.44;100512.88;4408414;32;20008;-70
2022/06/10 00:35:29;;;;;;;;;;;;;;;31.52;27.37;100506.28;4408544;32;20339;-70
2022/06/10 00:37:55;;;;;;;;;;;;;;;31.57;27.34;100511.13;4410015;32;20042;-70
2022/06/10 00:40:26;;;;;;;;;;;;;;;31.34;27.69;100522.88;4408979;32;19973;-70
2022/06/10 00:42:53;;;;;;;;;;;;;;;31.10;27.94;100514.81;4408047;32;19969;-70
2022/06/10 00:45:39;;;;;;;;;;;;;;;30.91;28.23;100516.62;4408713;32;21114;-70
2022/06/10 00:48:04;;;;;;;;;;;;;;;30.65;28.46;100524.41;4409550;32;20489;-70
2022/06/10 00:50:30;;;;;;;;;;;;;;;30.83;28.22;100523.25;4410085;32;19997;-70
2022/06/10 00:53:00;;;;;;;;;;;;;;;31.02;28.07;100522.81;4408961;32;19993;-70
2022/06/10 00:55:29;;;;;;;;;;;;;;;30.84;28.27;100521.87;4410213;32;19977;-70
2022/06/10 00:57:59;;;;;;;;;;;;;;;30.38;28.63;100514.63;4407645;32;19968;-70
2022/06/10 01:00:24;;;;;;;;;;;;;;;30.80;28.18;100514.94;4406591;32;19965;-70
2022/06/10 01:02:50;;;;;;;;;;;;;;;31.15;27.71;100522.56;4408949;32;20412;-70
2022/06/10 01:05:20;;;;;;;;;;;;;;;31.25;27.50;100525.59;4408784;32;20001;-70
2022/06/10 01:07:49;;;;;;;;;;;;;;;31.13;27.61;100531.06;4410017;32;19967;-70
2022/06/10 01:10:17;;;;;;;;;;;;;;;31.22;27.30;100529.69;4409768;32;19965;-70
2022/06/10 01:13:02;;;;;;;;;;;;;;;31.07;27.47;100538.50;4409449;32;20357;-70
2022/06/10 01:18:12;;;;;;;;;;;;;;;31.75;26.53;100528.06;3948692;32;15832546;-71
2022/06/10 01:20:57;;;;;;;;;;;;;;;31.75;26.53;100528.06;4437540;32;20620;-71
2022/06/10 01:29:03;;;;;;;;;;;;;;;31.52;26.23;100509.19;3957741;32;15725364;-71
2022/06/10 01:31:35;;;;;;;;;;;;;;;31.52;26.23;100509.19;4441705;32;19977;-71
2022/06/10 01:34:07;;;;;;;;;;;;;;;30.81;26.87;100525.19;4439710;32;20009;-71
2022/06/10 01:41:53;;;;;;;;;;;;;;;30.76;26.86;100534.88;3952137;32;15724464;-70
2022/06/10 01:47:00;;;;;;;;;;;;;;;30.56;27.09;100524.25;3952658;32;15722478;-70
2022/06/10 01:49:30;;;;;;;;;;;;;;;30.56;27.09;100524.25;4430008;32;19958;-70
2022/06/10 01:52:00;;;;;;;;;;;;;;;30.31;27.23;100534.94;4414285;32;19996;-70
2022/06/10 01:54:45;;;;;;;;;;;;;;;29.55;28.44;100533.25;4428105;32;20314;-70
2022/06/10 01:57:16;;;;;;;;;;;;;;;29.29;28.77;100530.69;4430245;32;20389;-70
2022/06/10 01:59:46;;;;;;;;;;;;;;;28.81;29.48;100530.22;4430776;32;20351;-70
2022/06/10 02:02:15;;;;;;;;;;;;;;;28.60;30.13;100526.62;4427502;32;20358;-70
2022/06/10 02:04:45;;;;;;;;;;;;;;;28.86;29.77;100522.72;4428009;32;20772;-70
2022/06/10 02:09:50;;;;;;;;;;;;;;;29.44;29.14;100527.81;3952887;32;15722899;-70
2022/06/10 02:12:21;;;;;;;;;;;;;;;29.44;29.14;100527.81;4427574;32;20007;-70
2022/06/10 02:14:50;;;;;;;;;;;;;;;28.91;29.70;100521.78;4430601;32;19972;-70
2022/06/10 02:17:17;;;;;;;;;;;;;;;28.21;30.54;100512.44;4426687;32;20216;-70
2022/06/10 02:19:45;;;;;;;;;;;;;;;28.11;31.02;100514.28;4429885;32;19980;-70
2022/06/10 02:22:14;;;;;;;;;;;;;;;28.62;30.21;100526.03;4428244;32;20048;-70
2022/06/10 02:24:50;;;;;;;;;;;;;;;28.23;30.70;100523.44;4428272;32;19974;-70
2022/06/10 02:27:18;;;;;;;;;;;;;;;28.18;30.81;100524.34;4430740;32;19957;-70
2022/06/10 02:29:58;;;;;;;;;;;;;;;28.43;30.38;100529.19;4430136;32;19957;-70
2022/06/10 02:32:24;;;;;;;;;;;;;;;28.46;30.33;100533.09;4431649;32;19949;-70
2022/06/10 02:34:50;;;;;;;;;;;;;;;28.78;29.80;100533.50;4426759;32;20042;-70
2022/06/10 02:37:35;;;;;;;;;;;;;;;28.97;29.45;100531.09;4428806;32;19970;-70
2022/06/10 02:45:35;;;;;;;;;;;;;;;28.89;29.68;100542.63;3951180;32;15721604;-70
2022/06/10 02:50:40;;;;;;;;;;;;;;;29.34;28.75;100538.41;3953377;32;15722372;-70
2022/06/10 02:53:07;;;;;;;;;;;;;;;29.34;28.75;100538.41;4426346;32;19961;-70
2022/06/10 02:55:33;;;;;;;;;;;;;;;29.20;28.80;100548.63;4428318;32;19997;-70
2022/06/10 03:03:58;;;;;;;;;;;;;;;29.60;28.16;100541.78;3971431;31;15717734;-70
2022/06/10 03:06:43;;;;;;;;;;;;;;;29.60;28.16;100541.78;4457527;32;20285;-70
2022/06/10 03:09:28;;;;;;;;;;;;;;;29.65;28.13;100555.34;4456783;32;19948;-71
2022/06/10 03:17:10;;;;;;;;;;;;;;;29.34;28.63;100561.59;3973984;31;15716572;-70
2022/06/10 03:19:59;;;;;;;;;;;;;;;29.34;28.63;100561.59;4447874;32;19965;-70
2022/06/10 03:22:36;;;;;;;;;;;;;;;28.90;28.89;100558.66;4448839;32;20266;-70
2022/06/10 03:27:58;;;;;;;;;;;;;;;29.37;28.79;100563.34;3952693;32;15729499;-70
2022/06/10 03:30:27;;;;;;;;;;;;;;;29.37;28.79;100563.34;4416033;32;20240;-70
2022/06/10 03:32:58;;;;;;;;;;;;;;;28.94;29.00;100562.00;4428251;32;19965;-70
2022/06/10 03:35:44;;;;;;;;;;;;;;;29.12;28.55;100559.37;4429594;32;20003;-70
2022/06/10 03:38:10;;;;;;;;;;;;;;;28.67;29.29;100563.56;4431115;32;19953;-70
2022/06/10 03:40:35;;;;;;;;;;;;;;;28.68;29.25;100561.41;4426203;32;20577;-70
2022/06/10 03:43:03;;;;;;;;;;;;;;;29.10;28.78;100559.16;4424041;32;19957;-70
2022/06/10 03:45:33;;;;;;;;;;;;;;;28.54;29.44;100557.88;4428605;32;19967;-70
2022/06/10 03:47:59;;;;;;;;;;;;;;;28.49;29.63;100555.91;4428386;32;19957;-70
2022/06/10 03:50:27;;;;;;;;;;;;;;;28.13;30.04;100557.88;4430190;32;20290;-70
2022/06/10 03:52:53;;;;;;;;;;;;;;;27.90;30.31;100556.91;4416088;32;20300;-70
2022/06/10 03:55:19;;;;;;;;;;;;;;;28.74;29.26;100559.94;4426008;32;19973;-70
2022/06/10 03:57:46;;;;;;;;;;;;;;;29.04;28.84;100565.13;4431045;32;19961;-70
2022/06/10 04:00:14;;;;;;;;;;;;;;;28.31;29.53;100559.78;4427769;32;20388;-70
2022/06/10 04:02:39;;;;;;;;;;;;;;;28.56;29.45;100560.97;4432213;32;19965;-70
2022/06/10 04:05:05;;;;;;;;;;;;;;;28.58;29.52;100560.38;4414533;32;20503;-70
2022/06/10 04:07:31;;;;;;;;;;;;;;;28.23;29.78;100556.06;4428888;32;19973;-70
2022/06/10 04:09:56;;;;;;;;;;;;;;;28.46;29.64;100570.72;4428606;32;20005;-70
2022/06/10 04:12:23;;;;;;;;;;;;;;;28.07;30.15;100573.84;4429583;32;19998;-70
2022/06/10 04:14:48;;;;;;;;;;;;;;;28.02;30.26;100566.88;4425256;32;20065;-70
2022/06/10 04:17:14;;;;;;;;;;;;;;;28.31;29.86;100570.56;4427597;32;19997;-70
2022/06/10 04:19:39;;;;;;;;;;;;;;;28.48;29.74;100563.03;4427470;32;19964;-70
2022/06/10 04:22:05;;;;;;;;;;;;;;;27.91;30.58;100566.34;4428911;32;19996;-70
2022/06/10 04:24:31;;;;;;;;;;;;;;;27.63;31.20;100567.00;4429126;32;20079;-70
2022/06/10 04:26:56;;;;;;;;;;;;;;;28.22;30.30;100566.06;4428403;32;19949;-70
2022/06/10 04:29:22;;;;;;;;;;;;;;;27.97;30.55;100567.78;4424864;32;19957;-71
2022/06/10 04:31:48;;;;;;;;;;;;;;;28.41;29.92;100565.84;4428959;32;19997;-70
2022/06/10 04:34:14;;;;;;;;;;;;;;;28.25;30.17;100575.72;4429555;32;19953;-70
2022/06/10 04:36:39;;;;;;;;;;;;;;;27.95;30.58;100584.91;4430247;32;19983;-70
2022/06/10 04:39:05;;;;;;;;;;;;;;;28.16;30.43;100582.03;4414284;32;20378;-70
2022/06/10 04:41:31;;;;;;;;;;;;;;;28.26;30.23;100586.75;4418539;32;20391;-70
2022/06/10 04:43:57;;;;;;;;;;;;;;;28.08;30.54;100584.88;4418081;32;20000;-70
2022/06/10 04:46:24;;;;;;;;;;;;;;;28.43;29.89;100594.97;4415286;32;20065;-70
2022/06/10 04:48:50;;;;;;;;;;;;;;;28.51;29.89;100582.19;4419122;32;20333;-70
2022/06/10 04:51:15;;;;;;;;;;;;;;;28.54;29.82;100586.03;4418196;32;20007;-70
2022/06/10 04:53:41;;;;;;;;;;;;;;;29.05;29.33;100592.75;4416575;32;20653;-70
2022/06/10 04:56:06;;;;;;;;;;;;;;;28.70;29.51;100588.47;4416119;32;19953;-70
2022/06/10 04:58:34;;;;;;;;;;;;;;;29.19;28.97;100597.09;4418329;32;19965;-70
2022/06/10 05:01:00;;;;;;;;;;;;;;;29.18;29.02;100591.88;4418649;32;20041;-70
2022/06/10 05:03:26;;;;;;;;;;;;;;;28.54;29.83;100586.81;4417030;32;20003;-70
2022/06/10 05:05:52;;;;;;;;;;;;;;;28.85;29.45;100582.78;4420071;32;20027;-70
2022/06/10 05:08:18;;;;;;;;;;;;;;;29.11;29.17;100592.63;4404610;32;20335;-70
2022/06/10 05:10:44;;;;;;;;;;;;;;;29.32;28.95;100585.38;4416301;32;19980;-70
2022/06/10 05:13:11;;;;;;;;;;;;;;;29.36;28.83;100590.81;4416223;32;20406;-70
2022/06/10 05:15:36;;;;;;;;;;;;;;;29.29;28.96;100603.16;4416392;32;20011;-70
2022/06/10 05:18:04;;;;;;;;;;;;;;;29.16;29.16;100586.66;4414997;32;20006;-70
2022/06/10 05:20:32;;;;;;;;;;;;;;;29.46;28.89;100583.88;4415003;32;20001;-70
2022/06/10 05:22:58;;;;;;;;;;;;;;;29.49;28.85;100584.84;4415822;32;20047;-70
2022/06/10 05:25:24;;;;;;;;;;;;;;;29.54;28.88;100589.72;4416388;32;19959;-70
2022/06/10 05:27:50;;;;;;;;;;;;;;;29.15;29.45;100585.09;4417786;32;20427;-70
2022/06/10 05:30:17;;;;;;;;;;;;;;;29.60;28.88;100585.28;4420275;32;20217;-70
2022/06/10 05:32:43;;;;;;;;;;;;;;;29.26;29.36;100589.81;4419310;32;19945;-70
2022/06/10 05:35:09;;;;;;;;;;;;;;;29.29;29.40;100585.75;4414290;32;20391;-70
2022/06/10 05:37:34;;;;;;;;;;;;;;;28.82;30.22;100592.63;4412053;32;19971;-70
2022/06/10 05:40:01;;;;;;;;;;;;;;;29.08;29.83;100594.53;4416267;32;20064;-70
2022/06/10 05:42:27;;;;;;;;;;;;;;;29.84;28.78;100593.50;4414849;32;19982;-70
2022/06/10 05:44:52;;;;;;;;;;;;;;;29.56;29.17;100602.28;4415476;32;20275;-71
2022/06/10 05:47:20;;;;;;;;;;;;;;;29.20;29.66;100606.59;4415565;32;20027;-70
2022/06/10 05:49:47;;;;;;;;;;;;;;;29.42;29.57;100594.31;4414730;32;20439;-70
2022/06/10 05:52:15;;;;;;;;;;;;;;;29.85;28.68;100603.75;4416851;32;19962;-70
2022/06/10 05:54:42;;;;;;;;;;;;;;;30.05;28.38;100599.94;4416085;32;20036;-70
2022/06/10 05:57:08;;;;;;;;;;;;;;;29.96;28.62;100593.91;4418445;32;19997;-70
2022/06/10 05:59:34;;;;;;;;;;;;;;;30.00;28.41;100597.97;4414769;32;20281;-70
2022/06/10 06:02:01;;;;;;;;;;;;;;;29.28;29.41;100587.09;4417597;32;19989;-70
2022/06/10 06:04:26;;;;;;;;;;;;;;;29.86;28.70;100584.22;4417073;32;20665;-70
2022/06/10 06:06:53;;;;;;;;;;;;;;;29.66;29.02;100588.03;4415346;32;20044;-70
2022/06/10 06:09:19;;;;;;;;;;;;;;;29.97;28.65;100592.56;4417391;32;20015;-70
2022/06/10 06:11:47;;;;;;;;;;;;;;;29.69;29.02;100596.34;4417391;32;20026;-70
2022/06/10 06:14:14;;;;;;;;;;;;;;;30.22;28.40;100605.19;4418843;32;20003;-70
2022/06/10 06:16:39;;;;;;;;;;;;;;;30.05;28.51;100605.72;4413880;32;20013;-70
2022/06/10 06:19:05;;;;;;;;;;;;;;;29.60;29.03;100593.97;4416315;32;20003;-70
2022/06/10 06:21:31;;;;;;;;;;;;;;;29.47;29.30;100597.03;4420116;32;19997;-70
2022/06/10 06:23:57;;;;;;;;;;;;;;;29.03;29.69;100604.91;4417048;32;19993;-70
2022/06/10 06:26:24;;;;;;;;;;;;;;;29.23;29.58;100611.22;4414929;32;20430;-70
2022/06/10 06:28:50;;;;;;;;;;;;;;;29.21;29.52;100619.72;4415213;32;20022;-70
2022/06/10 06:31:15;;;;;;;;;;;;;;;29.92;28.57;100616.72;4413047;32;20390;-70
2022/06/10 06:33:41;;;;;;;;;;;;;;;29.34;29.32;100625.38;4416830;32;20425;-70
2022/06/10 06:36:10;;;;;;;;;;;;;;;29.43;29.11;100627.75;4414261;32;20334;-70
2022/06/10 06:38:35;;;;;;;;;;;;;;;29.46;29.17;100630.28;4412989;32;20331;-70
2022/06/10 06:41:01;;;;;;;;;;;;;;;30.13;28.25;100626.81;4412172;32;20431;-70
2022/06/10 06:43:27;;;;;;;;;;;;;;;30.47;28.04;100635.97;4403298;32;19989;-70
2022/06/10 06:45:52;;;;;;;;;;;;;;;30.68;27.55;100633.66;4403926;32;20017;-70
2022/06/10 06:48:17;;;;;;;;;;;;;;;30.86;27.43;100637.53;4410448;32;19996;-70
2022/06/10 06:50:45;;;;;;;;;;;;;;;31.47;26.50;100630.22;4413795;32;20002;-69
2022/06/10 06:53:11;;;;;;;;;;;;;;;31.25;26.83;100633.97;4410857;32;20003;-70
2022/06/10 06:55:37;;;;;;;;;;;;;;;31.00;27.03;100638.09;4410513;32;19957;-71
2022/06/10 06:58:05;;;;;;;;;;;;;;;31.45;26.57;100632.19;4406073;32;20520;-71
2022/06/10 07:00:31;;;;;;;;;;;;;;;30.44;27.72;100645.09;4413345;32;20001;-70
2022/06/10 07:02:56;;;;;;;;;;;;;;;31.07;26.73;100626.44;4404345;32;20687;-70
2022/06/10 07:05:22;;;;;;;;;;;;;;;31.06;26.87;100630.72;4407486;32;20000;-70
2022/06/10 07:07:49;;;;;;;;;;;;;;;31.74;26.02;100639.22;4405711;32;20001;-70
2022/06/10 07:10:16;;;;;;;;;;;;;;;30.37;27.58;100643.72;4408297;32;20012;-70
2022/06/10 07:12:42;;;;;;;;;;;;;;;31.00;27.03;100638.88;4408812;32;20008;-70
2022/06/10 07:15:08;;;;;;;;;;;;;;;30.41;27.80;100637.53;4404652;32;20064;-69
2022/06/10 07:17:34;;;;;;;;;;;;;;;30.30;27.91;100649.50;4407339;32;20013;-70
2022/06/10 07:20:00;;;;;;;;;;;;;;;30.97;27.16;100648.75;4412217;32;20016;-69
2022/06/10 07:22:26;;;;;;;;;;;;;;;29.98;28.45;100652.94;4413843;32;19976;-69
2022/06/10 07:24:53;;;;;;;;;;;;;;;30.67;27.79;100651.66;4405745;32;20020;-69
2022/06/10 07:27:18;;;;;;;;;;;;;;;31.08;26.94;100665.81;4411020;32;19996;-69
2022/06/10 07:29:44;;;;;;;;;;;;;;;30.29;27.65;100654.56;4409525;32;20001;-69
2022/06/10 07:32:09;;;;;;;;;;;;;;;30.50;27.26;100658.03;4407490;32;19965;-69
2022/06/10 07:34:36;;;;;;;;;;;;;;;30.95;26.83;100657.28;4398772;32;20381;-69
2022/06/10 07:37:01;;;;;;;;;;;;;;;31.22;26.39;100655.50;4407679;32;20005;-69
2022/06/10 07:39:27;;;;;;;;;;;;;;;30.93;26.65;100668.75;4408340;32;20008;-68
2022/06/10 07:42:07;;;;;;;;;;;;;;;30.98;26.59;100672.81;4407654;32;20001;-69
2022/06/10 07:44:34;;;;;;;;;;;;;;;31.06;25.59;100665.62;4408896;32;20304;-69
2022/06/10 07:47:01;;;;;;;;;;;;;;;32.11;24.70;100668.16;4409445;32;20163;-70
2022/06/10 07:49:27;;;;;;;;;;;;;;;31.89;24.64;100668.28;4408542;32;20008;-69
2022/06/10 07:51:53;;;;;;;;;;;;;;;31.72;24.72;100673.97;4392048;32;20363;-71
2022/06/10 07:54:19;;;;;;;;;;;;;;;32.16;24.29;100689.69;4407993;32;20012;-68
2022/06/10 07:56:44;;;;;;;;;;;;;;;31.45;25.51;100673.69;4411395;32;20209;-69
2022/06/10 07:59:11;;;;;;;;;;;;;;;32.14;24.46;100678.63;4410112;32;20332;-69
2022/06/10 08:01:36;;;;;;;;;;;;;;;32.08;24.67;100692.62;4407542;32;20408;-69
2022/06/10 08:04:02;;;;;;;;;;;;;;;31.02;25.38;100676.88;4405486;32;20673;-69
2022/06/10 08:06:29;;;;;;;;;;;;;;;32.07;23.95;100682.38;4410320;32;20011;-69
2022/06/10 08:08:57;;;;;;;;;;;;;;;31.96;23.70;100682.03;4408732;32;20001;-69
2022/06/10 08:11:23;;;;;;;;;;;;;;;31.94;23.20;100682.59;4406154;32;20253;-69
2022/06/10 08:13:49;;;;;;;;;;;;;;;32.15;23.18;100679.41;4407865;32;20089;-69
2022/06/10 08:16:15;;;;;;;;;;;;;;;32.05;23.15;100690.12;4412538;32;20005;-69
2022/06/10 08:18:41;;;;;;;;;;;;;;;32.21;22.92;100685.78;4411429;32;19983;-69
2022/06/10 08:23:52;;;;;;;;;;;;;;;32.87;22.93;100682.22;4409281;32;21000;-69
2022/06/10 08:26:20;;;;;;;;;;;;;;;32.66;22.94;100670.91;4410344;32;20441;-69
2022/06/10 08:28:46;;;;;;;;;;;;;;;32.50;23.09;100681.91;4412426;32;20358;-69
2022/06/10 08:31:12;;;;;;;;;;;;;;;32.38;23.28;100689.56;4408934;32;20508;-69
2022/06/10 08:33:38;;;;;;;;;;;;;;;33.25;22.38;100691.37;4410476;32;19993;-69
2022/06/10 08:36:03;;;;;;;;;;;;;;;33.20;22.23;100680.72;4410825;32;20080;-69
2022/06/10 08:38:29;;;;;;;;;;;;;;;32.72;22.78;100679.38;4413570;32;20019;-69
2022/06/10 08:40:58;;;;;;;;;;;;;;;33.24;22.59;100686.91;4410770;32;20220;-70
2022/06/10 08:43:33;;;;;;;;;;;;;;;33.41;22.33;100687.69;4409831;32;20337;-70
2022/06/10 08:48:54;;;;;;;;;;;;;;;34.67;20.69;100702.59;3947481;32;15723566;-70
2022/06/10 08:51:25;;;;;;;;;;;;;;;34.67;20.69;100702.59;4420503;32;19991;-70
2022/06/10 08:54:02;;;;;;;;;;;;;;;34.72;20.27;100713.25;4417417;32;20396;-69
2022/06/10 08:56:33;;;;;;;;;;;;;;;33.97;20.94;100709.25;4414439;32;20330;-70
2022/06/10 08:59:01;;;;;;;;;;;;;;;34.17;20.30;100710.91;4419224;32;19992;-71
2022/06/10 09:01:29;;;;;;;;;;;;;;;34.96;19.44;100715.97;4415440;32;20004;-70
2022/06/10 09:06:37;;;;;;;;;;;;;;;35.99;18.56;100713.78;3952163;31;15718428;-71
2022/06/10 09:09:05;;;;;;;;;;;;;;;35.99;18.56;100713.78;4424316;32;20009;-71
2022/06/10 09:11:35;;;;;;;;;;;;;;;35.82;18.82;100713.97;4422922;32;20012;-70
2022/06/10 09:16:56;;;;;;;;;;;;;;;35.61;18.96;100724.72;3945084;32;15724611;-69
2022/06/10 09:19:41;;;;;;;;;;;;;;;35.61;18.96;100724.72;4420838;32;20379;-70
2022/06/10 09:22:13;;;;;;;;;;;;;;;35.14;19.04;100722.47;4420916;32;19993;-70
2022/06/10 09:24:43;;;;;;;;;;;;;;;35.48;19.16;100719.31;4423038;32;20405;-71
2022/06/10 09:27:14;;;;;;;;;;;;;;;35.75;19.03;100714.87;4421747;32;20013;-70
2022/06/10 09:29:40;;;;;;;;;;;;;;;35.37;19.37;100719.94;4422722;32;19993;-69
2022/06/10 09:32:11;;;;;;;;;;;;;;;35.53;19.37;100716.09;4422867;32;20027;-69
2022/06/10 09:37:39;;;;;;;;;;;;;;;36.31;18.63;100720.53;3953922;31;15716764;-71
2022/06/10 09:45:33;;;;;;;;;;;;;;;37.35;18.06;100723.03;3952729;32;15723540;-70
2022/06/10 09:56:01;;;;;;;;;;;;;;;36.07;19.35;100729.06;3958264;31;15716703;-70
2022/06/10 09:58:35;;;;;;;;;;;;;;;36.07;19.35;100729.06;4427387;32;20012;-71
2022/06/10 10:03:57;;;;;;;;;;;;;;;35.95;19.80;100734.00;3948746;32;15748414;-71
2022/06/10 10:09:19;;;;;;;;;;;;;;;36.71;19.18;100718.41;3949413;32;15725486;-71
2022/06/10 10:11:51;;;;;;;;;;;;;;;36.71;19.18;100718.41;4432232;32;20055;-71
2022/06/10 10:14:25;;;;;;;;;;;;;;;37.28;18.60;100715.22;4429517;32;20042;-72
2022/06/10 10:17:01;;;;;;;;;;;;;;;36.41;19.45;100733.78;4429795;32;19997;-70
2022/06/10 10:19:44;;;;;;;;;;;;;;;36.05;20.04;100725.97;4431391;32;19993;-71
2022/06/10 10:22:29;;;;;;;;;;;;;;;35.46;20.83;100727.97;4432492;32;19984;-70
2022/06/10 10:24:55;;;;;;;;;;;;;;;35.68;20.73;100736.28;4424581;32;20069;-72
2022/06/10 10:27:25;;;;;;;;;;;;;;;35.71;20.90;100746.75;4430864;32;20000;-72
2022/06/10 10:29:57;;;;;;;;;;;;;;;35.95;20.85;100756.66;4429653;32;20438;-70
2022/06/10 10:32:26;;;;;;;;;;;;;;;34.06;22.08;100734.84;4433182;32;20235;-70
2022/06/10 10:34:57;;;;;;;;;;;;;;;34.59;21.37;100740.72;4430341;32;20000;-70
2022/06/10 10:40:04;;;;;;;;;;;;;;;36.20;19.66;100733.66;3937403;32;15724589;-71
2022/06/10 10:42:32;;;;;;;;;;;;;;;36.20;19.66;100733.66;4400050;32;20044;-71
2022/06/10 10:45:03;;;;;;;;;;;;;;;34.98;20.97;100724.91;4408830;32;19958;-71
2022/06/10 10:47:32;;;;;;;;;;;;;;;36.16;20.17;100716.53;4413399;32;19997;-71
2022/06/10 11:00:41;;;;;;;;;;;;;;;36.65;18.93;100720.16;3949716;32;15723459;-71
2022/06/10 11:03:21;;;;;;;;;;;;;;;36.65;18.93;100720.16;4433407;32;19949;-71
2022/06/10 11:05:48;;;;;;;;;;;;;;;36.79;18.72;100715.31;4432560;32;19997;-71
2022/06/10 11:08:20;;;;;;;;;;;;;;;37.24;18.58;100717.09;4432776;32;20007;-71
2022/06/10 11:13:32;;;;;;;;;;;;;;;39.72;16.50;100726.09;3961949;31;15716461;-70
2022/06/10 11:16:17;;;;;;;;;;;;;;;39.72;16.50;100726.09;4439745;32;20788;-70
2022/06/10 11:18:46;;;;;;;;;;;;;;;37.92;18.15;100713.03;4444698;32;20046;-70
2022/06/10 11:21:12;;;;;;;;;;;;;;;37.62;18.29;100726.41;4443696;32;20004;-70
2022/06/10 11:23:48;;;;;;;;;;;;;;;38.15;18.05;100715.28;4441428;32;20555;-70
2022/06/10 11:26:17;;;;;;;;;;;;;;;38.31;17.79;100725.19;4440785;32;20454;-70
2022/06/10 11:28:44;;;;;;;;;;;;;;;39.27;16.49;100710.81;4441314;32;19953;-70
2022/06/10 11:31:19;;;;;;;;;;;;;;;39.17;16.81;100716.09;4441343;32;20425;-70
2022/06/10 11:33:46;;;;;;;;;;;;;;;38.36;16.98;100718.16;4442824;32;20027;-70
2022/06/10 11:36:14;;;;;;;;;;;;;;;39.04;16.68;100732.22;4442239;32;19967;-70
2022/06/10 11:38:49;;;;;;;;;;;;;;;39.94;16.16;100716.44;4439549;32;20475;-70
2022/06/10 11:41:26;;;;;;;;;;;;;;;39.67;16.33;100717.00;4442873;32;20048;-70
2022/06/10 11:43:56;;;;;;;;;;;;;;;39.77;16.16;100731.59;4442549;32;19969;-70
2022/06/10 11:46:27;;;;;;;;;;;;;;;39.56;16.39;100746.50;4439910;32;19975;-70
2022/06/10 11:51:44;;;;;;;;;;;;;;;38.64;17.26;100714.91;3949526;32;15813570;-72
2022/06/10 11:54:18;;;;;;;;;;;;;;;38.64;17.26;100714.91;4429120;32;20221;-70
2022/06/10 12:02:23;;;;;;;;;;;;;;;40.50;16.38;100716.00;3946846;32;15746157;-71
2022/06/10 12:04:55;;;;;;;;;;;;;;;40.50;16.38;100716.00;4418841;32;20001;-71
2022/06/10 12:07:24;;;;;;;;;;;;;;;40.44;16.22;100703.84;4421104;32;19949;-71
2022/06/10 12:09:54;;;;;;;;;;;;;;;39.82;16.48;100712.78;4422126;32;20081;-71
2022/06/10 12:12:22;;;;;;;;;;;;;;;39.56;16.29;100697.19;4422592;32;20096;-71
2022/06/10 12:14:50;;;;;;;;;;;;;;;40.52;15.86;100692.53;4421830;32;20012;-71
2022/06/10 12:17:33;;;;;;;;;;;;;;;40.60;15.26;100698.84;4417565;32;20005;-72
2022/06/10 12:20:18;;;;;;;;;;;;;;;39.56;16.00;100697.19;4416997;32;20914;-71
2022/06/10 12:22:44;;;;;;;;;;;;;;;39.62;16.11;100682.84;4412750;32;20391;-71
2022/06/10 12:27:55;;;;;;;;;;;;;;;39.66;15.85;100679.34;3907538;32;15763565;-69
2022/06/10 12:30:25;;;;;;;;;;;;;;;40.67;15.25;100674.97;4379326;32;20047;-71
2022/06/10 12:33:10;;;;;;;;;;;;;;;39.96;14.94;100668.63;4382026;32;20020;-70
2022/06/10 12:35:37;;;;;;;;;;;;;;;40.32;14.41;100674.44;4376019;32;20017;-70
2022/06/10 12:38:21;;;;;;;;;;;;;;;39.82;14.81;100673.66;4375052;32;20001;-70
2022/06/10 12:40:49;;;;;;;;;;;;;;;39.17;15.50;100666.03;4372794;32;20698;-70
2022/06/10 12:43:24;;;;;;;;;;;;;;;38.43;15.73;100658.34;4374012;32;20336;-72
2022/06/10 12:45:51;;;;;;;;;;;;;;;37.67;16.46;100671.69;4374244;32;20429;-71
2022/06/10 12:48:20;;;;;;;;;;;;;;;37.50;16.53;100646.28;4371974;32;19958;-71
2022/06/10 12:50:48;;;;;;;;;;;;;;;37.85;16.09;100649.38;4364222;32;19978;-71
2022/06/10 12:55:52;;;;;;;;;;;;;;;39.52;15.24;100652.00;3947740;32;15725350;-72
2022/06/10 12:58:38;;;;;;;;;;;;;;;39.52;15.24;100652.00;4421224;32;20001;-72
2022/06/10 13:03:58;;;;;;;;;;;;;;;42.53;12.85;100672.13;3945692;32;15726299;-70
2022/06/10 13:11:46;;;;;;;;;;;;;;;42.45;12.55;100668.03;3946497;32;15725582;-71
2022/06/10 13:17:00;;;;;;;;;;;;;;;40.47;13.87;100690.75;3946741;32;15717348;-71
2022/06/10 13:19:43;;;;;;;;;;;;;;;40.47;13.87;100690.75;4398135;32;19964;-71
2022/06/10 13:22:29;;;;;;;;;;;;;;;40.58;13.68;100655.25;4422093;32;19960;-71
2022/06/10 13:27:32;;;;;;;;;;;;;;;40.25;14.09;100662.94;3948822;32;15723620;-71
2022/06/10 13:30:09;;;;;;;;;;;;;;;40.25;14.09;100662.94;4422496;32;20027;-71
2022/06/10 13:32:38;;;;;;;;;;;;;;;38.47;14.89;100650.56;4423223;32;20043;-70
2022/06/10 13:35:04;;;;;;;;;;;;;;;38.73;14.95;100648.53;4421623;32;20398;-71
2022/06/10 13:37:32;;;;;;;;;;;;;;;38.46;14.93;100642.38;4426003;32;20240;-70
2022/06/10 13:40:00;;;;;;;;;;;;;;;39.07;14.74;100648.53;4428010;32;20050;-71
2022/06/10 13:42:35;;;;;;;;;;;;;;;38.89;14.70;100641.47;4424716;32;19949;-71
2022/06/10 13:45:02;;;;;;;;;;;;;;;38.46;14.95;100642.38;4425415;32;20397;-71
2022/06/10 13:47:31;;;;;;;;;;;;;;;39.19;14.25;100630.81;4424656;32;20018;-71
2022/06/10 13:52:33;;;;;;;;;;;;;;;39.57;13.95;100633.91;3950416;32;15723528;-71
2022/06/10 13:55:17;;;;;;;;;;;;;;;39.57;13.95;100633.91;4423938;32;19980;-71
2022/06/10 13:57:43;;;;;;;;;;;;;;;39.22;13.98;100636.19;4422679;32;20313;-71
2022/06/10 14:00:19;;;;;;;;;;;;;;;39.80;13.54;100636.00;4421978;32;19999;-71
2022/06/10 14:02:45;;;;;;;;;;;;;;;41.28;12.52;100637.66;4411836;32;19998;-70
2022/06/10 14:05:19;;;;;;;;;;;;;;;42.74;11.76;100639.12;4423293;32;20009;-71
2022/06/10 14:07:45;;;;;;;;;;;;;;;43.63;11.07;100629.03;4420512;32;19969;-70
2022/06/10 14:10:20;;;;;;;;;;;;;;;41.74;11.93;100633.41;4419882;32;20012;-71
2022/06/10 14:12:54;;;;;;;;;;;;;;;42.30;12.00;100622.19;4425516;32;19968;-71
2022/06/10 14:15:20;;;;;;;;;;;;;;;40.36;13.07;100629.66;4423570;32;20496;-71
2022/06/10 14:17:48;;;;;;;;;;;;;;;41.33;12.53;100630.56;4419358;32;20069;-71
2022/06/10 14:20:15;;;;;;;;;;;;;;;42.46;11.87;100623.00;4419886;32;19973;-71
2022/06/10 14:22:44;;;;;;;;;;;;;;;42.23;11.81;100628.47;4421970;32;19995;-72
2022/06/10 14:28:00;;;;;;;;;;;;;;;43.49;10.93;100642.50;3946094;32;15722503;-72
2022/06/10 14:33:16;;;;;;;;;;;;;;;43.95;10.20;100620.75;3944034;32;15722628;-72
2022/06/10 14:35:45;;;;;;;;;;;;;;;43.95;10.20;100620.75;4421201;32;20085;-72
2022/06/10 14:40:53;;;;;;;;;;;;;;;43.34;11.76;100619.59;3948143;32;15723606;-72
2022/06/10 14:43:22;;;;;;;;;;;;;;;43.34;11.76;100619.59;4412617;32;19961;-72
2022/06/10 14:45:59;;;;;;;;;;;;;;;42.20;12.46;100624.66;4429152;32;19958;-72
2022/06/10 14:48:27;;;;;;;;;;;;;;;41.35;13.09;100612.94;4424210;32;20126;-72
2022/06/10 14:53:46;;;;;;;;;;;;;;;41.58;13.35;100624.50;3946736;32;15724306;-72